createdAt,value
2023-02-05T00:01:49.184Z,32.33
2023-02-05T00:04:17.101Z,40.00
2023-02-05T00:06:44.919Z,28.87
2023-02-05T00:09:13.017Z,31.60
2023-02-05T00:11:40.820Z,27.87
2023-02-05T00:14:08.621Z,28.83
2023-02-05T00:16:36.958Z,23.80
2023-02-05T00:19:06.107Z,31.50
2023-02-05T00:21:33.942Z,26.57
2023-02-05T00:24:01.810Z,29.30
2023-02-05T00:26:29.663Z,28.07
2023-02-05T00:28:57.668Z,28.83
2023-02-05T00:31:25.896Z,32.17
2023-02-05T00:33:54.054Z,30.40
2023-02-05T00:36:25.546Z,27.90
2023-02-05T00:38:56.167Z,26.03
2023-02-05T00:41:23.958Z,34.47
2023-02-05T00:43:51.760Z,25.00
2023-02-05T00:46:19.642Z,28.27
2023-02-05T00:48:47.476Z,35.47
2023-02-05T00:51:15.306Z,30.13
2023-02-05T00:53:44.457Z,31.73
2023-02-05T00:56:12.405Z,26.27
2023-02-05T00:58:40.576Z,27.17
2023-02-05T01:01:08.501Z,29.67
2023-02-05T01:03:36.245Z,24.43
2023-02-05T01:06:05.075Z,27.17
2023-02-05T01:08:32.927Z,28.93
2023-02-05T01:11:02.410Z,27.23
2023-02-05T01:13:30.168Z,30.80
2023-02-05T01:15:58.027Z,31.43
2023-02-05T01:18:26.967Z,30.87
2023-02-05T01:20:54.858Z,29.30
2023-02-05T01:23:23.317Z,33.27
2023-02-05T01:25:51.055Z,27.63
2023-02-05T01:28:20.242Z,34.33
2023-02-05T01:30:49.560Z,26.20
2023-02-05T01:33:17.578Z,28.00
2023-02-05T01:35:45.923Z,31.33
2023-02-05T01:38:14.101Z,38.50
2023-02-05T01:40:42.532Z,32.97
2023-02-05T01:43:13.920Z,28.27
2023-02-05T01:46:12.320Z,28.33
2023-02-05T01:48:44.024Z,32.13
2023-02-05T01:51:15.463Z,33.63
2023-02-05T01:53:44.819Z,33.30
2023-02-05T01:56:17.807Z,33.00
2023-02-05T01:58:50.741Z,33.23
2023-02-05T02:01:20.156Z,36.23
2023-02-05T02:03:50.311Z,37.50
2023-02-05T02:06:18.317Z,36.63
2023-02-05T02:08:46.773Z,40.13
2023-02-05T02:11:17.207Z,32.07
2023-02-05T02:13:46.881Z,30.67
2023-02-05T02:16:16.196Z,33.40
2023-02-05T02:18:47.188Z,33.77
2023-02-05T02:21:37.408Z,38.00
2023-02-05T02:24:22.676Z,34.03
2023-02-05T02:27:22.209Z,37.20
2023-02-05T02:29:57.950Z,37.17
2023-02-05T02:32:32.634Z,34.87
2023-02-05T02:35:08.113Z,35.03
2023-02-05T02:37:40.980Z,34.63
2023-02-05T02:40:16.915Z,38.30
2023-02-05T02:42:49.731Z,35.30
2023-02-05T02:45:22.462Z,35.33
2023-02-05T02:47:54.359Z,38.63
2023-02-05T02:50:26.719Z,34.10
2023-02-05T02:52:56.137Z,33.53
2023-02-05T02:55:25.534Z,34.00
2023-02-05T02:57:55.999Z,26.27
2023-02-05T03:00:28.011Z,33.90
2023-02-05T03:03:01.017Z,32.90
2023-02-05T03:05:31.055Z,28.03
2023-02-05T03:08:03.539Z,29.53
2023-02-05T03:10:40.953Z,36.97
2023-02-05T03:13:10.469Z,33.57
2023-02-05T03:15:44.527Z,36.13
2023-02-05T03:18:13.415Z,40.10
2023-02-05T03:20:48.100Z,38.07
2023-02-05T03:23:16.599Z,33.87
2023-02-05T03:25:44.866Z,34.80
2023-02-05T03:28:14.680Z,30.67
2023-02-05T03:30:54.460Z,35.70
2023-02-05T03:33:35.599Z,39.43
2023-02-05T03:36:13.685Z,32.57
2023-02-05T03:38:56.780Z,37.67
2023-02-05T03:41:54.208Z,28.40
2023-02-05T03:44:30.653Z,32.93
2023-02-05T03:47:05.339Z,36.23
2023-02-05T03:49:46.115Z,42.10
2023-02-05T03:52:18.273Z,41.47
2023-02-05T03:54:53.452Z,35.53
2023-02-05T03:57:31.455Z,32.00
2023-02-05T04:00:00.237Z,34.00
2023-02-05T04:02:31.319Z,34.67
2023-02-05T04:05:00.223Z,32.30
2023-02-05T04:07:29.244Z,29.43
2023-02-05T04:09:57.059Z,36.73
2023-02-05T04:12:25.047Z,36.10
2023-02-05T04:14:52.798Z,34.50
2023-02-05T04:17:20.652Z,35.40
2023-02-05T04:19:50.594Z,39.60
2023-02-05T04:22:20.396Z,35.07
2023-02-05T04:24:48.799Z,39.63
2023-02-05T04:27:18.095Z,39.70
2023-02-05T04:29:45.939Z,47.57
2023-02-05T04:32:13.814Z,39.93
2023-02-05T04:34:41.738Z,34.83
2023-02-05T04:37:13.521Z,42.03
2023-02-05T04:39:41.406Z,39.37
2023-02-05T04:42:09.246Z,37.87
2023-02-05T04:44:36.989Z,41.60
2023-02-05T04:47:04.837Z,46.67
2023-02-05T04:49:33.454Z,39.13
2023-02-05T04:52:01.302Z,41.90
2023-02-05T04:54:31.620Z,35.23
2023-02-05T04:56:59.436Z,39.87
2023-02-05T04:59:27.179Z,41.77
2023-02-05T05:01:54.924Z,37.10
2023-02-05T05:04:22.919Z,40.43
2023-02-05T05:06:50.654Z,38.07
2023-02-05T05:09:20.845Z,44.50
2023-02-05T05:11:49.971Z,39.27
2023-02-05T05:14:17.841Z,38.77
2023-02-05T05:16:45.698Z,39.17
2023-02-05T05:19:13.573Z,34.47
2023-02-05T05:21:41.364Z,46.33
2023-02-05T05:24:09.210Z,39.30
2023-02-05T05:26:38.030Z,48.93
2023-02-05T05:29:07.241Z,46.53
2023-02-05T05:31:35.091Z,46.77
2023-02-05T05:34:02.957Z,57.13
2023-02-05T05:36:31.073Z,49.90
2023-02-05T05:39:18.833Z,46.13
2023-02-05T05:42:03.876Z,54.57
2023-02-05T05:44:32.996Z,45.63
2023-02-05T05:47:00.753Z,50.30
2023-02-05T05:49:28.583Z,48.53
2023-02-05T05:51:56.322Z,53.30
2023-02-05T05:54:24.069Z,50.30
2023-02-05T05:56:51.882Z,42.07
2023-02-05T05:59:19.658Z,47.70
2023-02-05T06:01:48.777Z,49.60
2023-02-05T06:04:16.721Z,48.73
2023-02-05T06:06:44.512Z,49.37
2023-02-05T06:09:12.376Z,47.57
2023-02-05T06:11:40.142Z,43.73
2023-02-05T06:14:07.921Z,48.90
2023-02-05T06:16:35.690Z,45.73
2023-02-05T06:19:04.936Z,47.10
2023-02-05T06:21:32.968Z,40.67
2023-02-05T06:24:00.705Z,43.57
2023-02-05T06:26:28.578Z,42.07
2023-02-05T06:28:57.150Z,45.63
2023-02-05T06:31:25.055Z,46.33
2023-02-05T06:33:52.849Z,46.23
2023-02-05T06:36:22.008Z,45.90
2023-02-05T06:38:49.761Z,51.80
2023-02-05T06:41:17.505Z,49.03
2023-02-05T06:43:45.369Z,48.77
2023-02-05T06:46:13.149Z,47.70
2023-02-05T06:48:40.918Z,52.23
2023-02-05T06:51:08.690Z,50.93
2023-02-05T06:53:37.854Z,49.10
2023-02-05T06:56:06.500Z,58.87
2023-02-05T06:58:34.238Z,54.23
2023-02-05T07:01:03.421Z,58.47
2023-02-05T07:03:31.188Z,58.03
2023-02-05T07:06:03.564Z,59.67
2023-02-05T07:08:32.085Z,61.50
2023-02-05T07:11:01.801Z,61.20
2023-02-05T07:13:30.942Z,61.40
2023-02-05T07:15:58.784Z,65.80
2023-02-05T07:18:26.577Z,64.97
2023-02-05T07:20:54.331Z,68.80
2023-02-05T07:23:22.371Z,74.53
2023-02-05T07:25:50.180Z,62.13
2023-02-05T07:28:19.347Z,66.63
2023-02-05T07:30:47.748Z,68.07
2023-02-05T07:33:15.585Z,70.60
2023-02-05T07:35:43.917Z,71.90
2023-02-05T07:38:11.930Z,69.07
2023-02-05T07:40:39.725Z,74.97
2023-02-05T07:43:07.521Z,70.53
2023-02-05T07:45:36.831Z,75.93
2023-02-05T07:48:05.060Z,74.90
2023-02-05T07:50:32.911Z,78.00
2023-02-05T07:53:00.692Z,74.00
2023-02-05T07:55:28.522Z,57.47
2023-02-05T07:57:56.317Z,58.20
2023-02-05T08:00:24.833Z,56.63
2023-02-05T08:02:54.020Z,59.90
2023-02-05T08:05:21.737Z,54.47
2023-02-05T08:07:49.972Z,49.47
2023-02-05T08:10:17.983Z,61.37
2023-02-05T08:12:45.769Z,48.60
2023-02-05T08:15:13.802Z,45.10
2023-02-05T08:17:41.637Z,39.03
2023-02-05T08:20:12.873Z,44.37
2023-02-05T08:22:42.295Z,50.13
2023-02-05T08:25:12.964Z,35.37
2023-02-05T08:27:42.585Z,35.87
2023-02-05T08:30:13.162Z,29.73
2023-02-05T08:32:40.982Z,32.40
2023-02-05T08:35:09.284Z,27.37
2023-02-05T08:37:38.411Z,25.40
2023-02-05T08:40:06.774Z,18.17
2023-02-05T08:42:34.541Z,20.93
2023-02-05T08:45:03.399Z,20.40
2023-02-05T08:47:31.187Z,21.80
2023-02-05T08:49:58.899Z,22.87
2023-02-05T08:52:26.694Z,22.30
2023-02-05T08:54:55.824Z,22.50
2023-02-05T08:57:23.632Z,24.00
2023-02-05T08:59:51.387Z,24.33
2023-02-05T09:02:19.115Z,21.27
2023-02-05T09:04:47.219Z,25.40
2023-02-05T09:07:15.066Z,20.93
2023-02-05T09:09:43.058Z,20.53
2023-02-05T09:12:12.323Z,23.37
2023-02-05T09:14:40.483Z,21.27
2023-02-05T09:17:10.440Z,19.50
2023-02-05T09:19:39.475Z,14.03
2023-02-05T09:22:07.653Z,13.00
2023-02-05T09:24:37.555Z,7.57
2023-02-05T09:27:06.697Z,6.23
2023-02-05T09:29:36.031Z,6.97
2023-02-05T09:32:03.723Z,6.43
2023-02-05T09:34:32.711Z,5.50
2023-02-05T09:37:00.460Z,5.73
2023-02-05T09:40:12.002Z,5.60
2023-02-05T09:42:28.867Z,4.80
2023-02-05T09:45:17.364Z,4.30
2023-02-05T09:47:55.774Z,4.27
2023-02-05T09:50:29.499Z,6.40
2023-02-05T09:53:02.829Z,4.30
2023-02-05T09:55:34.811Z,4.47
2023-02-05T09:58:07.906Z,5.67
2023-02-05T10:00:45.892Z,3.10
2023-02-05T10:03:24.248Z,3.23
2023-02-05T10:06:05.972Z,2.30
2023-02-05T10:08:40.226Z,3.13
2023-02-05T10:11:18.227Z,2.03
2023-02-05T10:13:48.615Z,4.43
2023-02-05T10:16:32.938Z,2.70
2023-02-05T10:19:22.549Z,2.37
2023-02-05T10:22:11.834Z,3.63
2023-02-05T10:25:06.384Z,2.20
2023-02-05T10:27:44.301Z,1.57
2023-02-05T10:30:22.416Z,1.27
2023-02-05T10:32:57.730Z,1.33
2023-02-05T10:35:35.151Z,1.93
2023-02-05T10:38:06.827Z,3.07
2023-02-05T10:40:40.072Z,3.60
2023-02-05T10:43:20.462Z,4.47
2023-02-05T10:45:49.612Z,3.53
2023-02-05T10:48:29.520Z,2.83
2023-02-05T10:51:02.973Z,2.37
2023-02-05T10:53:32.038Z,2.40
2023-02-05T10:56:02.626Z,2.93
2023-02-05T10:58:44.467Z,1.00
2023-02-05T11:01:17.414Z,0.60
2023-02-05T11:03:55.712Z,1.10
2023-02-05T11:06:26.364Z,2.10
2023-02-05T11:08:54.553Z,1.03
2023-02-05T11:11:25.812Z,2.63
2023-02-05T11:13:57.086Z,2.20
2023-02-05T11:16:26.285Z,3.17
2023-02-05T11:19:01.073Z,2.53
2023-02-05T11:21:46.975Z,3.37
2023-02-05T11:24:28.579Z,3.00
2023-02-05T11:27:25.234Z,2.20
2023-02-05T11:29:53.336Z,1.60
2023-02-05T11:32:21.801Z,2.93
2023-02-05T11:34:51.085Z,2.60
2023-02-05T11:37:20.027Z,1.30
2023-02-05T11:39:54.865Z,3.63
2023-02-05T11:42:25.817Z,2.83
2023-02-05T11:44:56.009Z,3.93
2023-02-05T11:47:28.212Z,4.07
2023-02-05T11:49:58.444Z,2.33
2023-02-05T11:52:29.305Z,3.07
2023-02-05T11:54:57.570Z,1.83
2023-02-05T11:57:33.763Z,3.83
2023-02-05T12:00:03.643Z,2.50
2023-02-05T12:02:34.655Z,3.50
2023-02-05T12:05:12.013Z,2.43
2023-02-05T12:07:46.077Z,3.37
2023-02-05T12:10:18.948Z,4.03
2023-02-05T12:13:00.892Z,3.83
2023-02-05T12:15:32.359Z,7.17
2023-02-05T12:18:11.060Z,5.80
2023-02-05T12:20:45.528Z,10.93
2023-02-05T12:23:31.332Z,6.10
2023-02-05T12:26:13.055Z,6.83
2023-02-05T12:28:49.732Z,6.37
2023-02-05T12:31:25.857Z,7.53
2023-02-05T12:34:05.007Z,7.03
2023-02-05T12:36:46.886Z,14.10
2023-02-05T12:39:28.957Z,5.70
2023-02-05T12:42:06.819Z,8.00
2023-02-05T12:44:51.965Z,5.50
2023-02-05T12:47:37.022Z,5.67
2023-02-05T12:50:17.723Z,4.53
2023-02-05T12:53:02.802Z,4.63
2023-02-05T12:55:47.258Z,6.60
2023-02-05T12:58:17.826Z,4.70
2023-02-05T13:00:51.303Z,7.70
2023-02-05T13:03:26.380Z,3.97
2023-02-05T13:05:58.266Z,5.07
2023-02-05T13:08:39.728Z,5.43
2023-02-05T13:11:13.740Z,4.43
2023-02-05T13:13:51.575Z,3.83
2023-02-05T13:16:22.534Z,5.47
2023-02-05T13:18:59.832Z,5.17
2023-02-05T13:21:46.568Z,6.40
2023-02-05T13:24:44.244Z,3.40
2023-02-05T13:27:40.117Z,3.23
2023-02-05T13:30:13.520Z,3.30
2023-02-05T13:32:43.539Z,4.33
2023-02-05T13:35:12.302Z,4.00
2023-02-05T13:37:53.868Z,3.80
2023-02-05T13:40:42.797Z,4.10
2023-02-05T13:43:31.693Z,4.47
2023-02-05T13:46:29.759Z,5.30
2023-02-05T13:49:40.011Z,4.13
2023-02-05T13:52:21.443Z,3.87
2023-02-05T13:55:11.290Z,4.83
2023-02-05T13:58:10.555Z,5.13
2023-02-05T14:00:40.688Z,8.23
2023-02-05T14:03:09.998Z,7.80
2023-02-05T14:05:42.266Z,7.67
2023-02-05T14:08:22.571Z,11.40
2023-02-05T14:10:59.304Z,8.00
2023-02-05T14:13:32.531Z,6.90
2023-02-05T14:16:36.494Z,10.17
2023-02-05T14:19:17.377Z,6.97
2023-02-05T14:22:03.680Z,6.60
2023-02-05T14:24:55.704Z,7.83
2023-02-05T14:27:51.936Z,9.50
2023-02-05T14:30:50.418Z,7.67
2023-02-05T14:33:41.376Z,7.10
2023-02-05T14:36:36.706Z,7.33
2023-02-05T14:39:19.050Z,10.17
2023-02-05T14:41:55.115Z,8.57
2023-02-05T14:44:29.547Z,6.43
2023-02-05T14:47:03.368Z,6.50
2023-02-05T14:49:40.191Z,7.53
2023-02-05T14:52:27.205Z,7.80
2023-02-05T14:55:00.085Z,8.60
2023-02-05T14:57:30.621Z,7.33
2023-02-05T15:00:01.809Z,8.73
2023-02-05T15:03:01.205Z,7.30
2023-02-05T15:05:35.964Z,7.00
2023-02-05T15:08:14.421Z,9.57
2023-02-05T15:10:49.801Z,7.57
2023-02-05T15:13:18.657Z,8.40
2023-02-05T15:16:10.386Z,7.93
2023-02-05T15:18:43.076Z,8.40
2023-02-05T15:21:18.018Z,7.70
2023-02-05T15:23:48.268Z,9.87
2023-02-05T15:26:25.264Z,7.20
2023-02-05T15:28:59.974Z,6.47
2023-02-05T15:31:34.488Z,7.80
2023-02-05T15:34:33.724Z,7.00
2023-02-05T15:37:06.556Z,18.00
2023-02-05T15:39:48.524Z,10.87
2023-02-05T15:42:20.521Z,7.70
2023-02-05T15:44:48.646Z,9.67
2023-02-05T15:47:20.332Z,12.33
2023-02-05T15:49:52.821Z,8.67
2023-02-05T15:52:23.745Z,8.47
2023-02-05T15:54:54.761Z,9.07
2023-02-05T15:57:26.136Z,11.00
2023-02-05T15:59:54.904Z,10.63
2023-02-05T16:02:25.856Z,9.57
2023-02-05T16:04:57.309Z,10.63
2023-02-05T16:07:27.408Z,10.23
2023-02-05T16:09:57.476Z,9.37
2023-02-05T16:12:26.381Z,13.07
2023-02-05T16:15:01.703Z,9.00
2023-02-05T16:17:34.966Z,8.90
2023-02-05T16:20:17.047Z,14.83
2023-02-05T16:22:48.656Z,8.70
2023-02-05T16:25:28.697Z,11.43
2023-02-05T16:27:58.370Z,9.57
2023-02-05T16:30:31.782Z,12.30
2023-02-05T16:33:02.244Z,9.03
2023-02-05T16:35:36.844Z,10.53
2023-02-05T16:38:09.038Z,13.87
2023-02-05T16:40:40.781Z,12.10
2023-02-05T16:43:21.483Z,12.97
2023-02-05T16:46:34.666Z,11.17
2023-02-05T16:49:04.525Z,13.77
2023-02-05T16:51:39.279Z,15.40
2023-02-05T16:54:37.934Z,15.73
2023-02-05T16:57:10.747Z,12.67
2023-02-05T16:59:50.640Z,11.57
2023-02-05T17:02:29.780Z,13.13
2023-02-05T17:04:59.664Z,12.63
2023-02-05T17:07:29.952Z,12.57
2023-02-05T17:10:20.917Z,14.30
2023-02-05T17:12:57.080Z,13.27
2023-02-05T17:15:40.510Z,17.37
2023-02-05T17:18:27.005Z,11.67
2023-02-05T17:21:24.492Z,15.53
2023-02-05T17:23:56.691Z,16.20
2023-02-05T17:26:25.388Z,15.40
2023-02-05T17:28:55.749Z,14.87
2023-02-05T17:31:26.311Z,14.83
2023-02-05T17:33:55.876Z,13.43
2023-02-05T17:36:24.419Z,15.93
2023-02-05T17:38:54.013Z,18.40
2023-02-05T17:41:41.869Z,16.10
2023-02-05T17:44:12.154Z,16.40
2023-02-05T17:46:40.391Z,15.70
2023-02-05T17:49:08.265Z,25.03
2023-02-05T17:51:38.688Z,13.47
2023-02-05T17:54:13.163Z,17.67
2023-02-05T17:56:42.069Z,19.60
2023-02-05T17:59:11.825Z,17.83
2023-02-05T18:01:39.569Z,18.10
2023-02-05T18:04:07.447Z,18.50
2023-02-05T18:06:36.105Z,13.97
2023-02-05T18:09:03.970Z,20.00
2023-02-05T18:11:33.473Z,13.97
2023-02-05T18:14:01.250Z,14.20
2023-02-05T18:16:29.146Z,16.77
2023-02-05T18:18:56.981Z,17.77
2023-02-05T18:21:24.821Z,19.20
2023-02-05T18:23:53.112Z,18.03
2023-02-05T18:26:21.523Z,21.20
2023-02-05T18:28:51.285Z,21.63
2023-02-05T18:31:19.185Z,17.70
2023-02-05T18:33:49.374Z,24.77
2023-02-05T18:36:17.459Z,22.67
2023-02-05T18:38:45.247Z,17.20
2023-02-05T18:41:15.174Z,23.10
2023-02-05T18:43:43.092Z,24.67
2023-02-05T18:46:14.234Z,14.83
2023-02-05T18:48:43.718Z,20.87
2023-02-05T18:51:14.483Z,33.60
2023-02-05T18:53:43.455Z,22.07
2023-02-05T18:56:14.615Z,16.50
2023-02-05T18:58:43.563Z,21.57
2023-02-05T19:01:14.558Z,21.27
2023-02-05T19:03:42.979Z,18.67
2023-02-05T19:06:12.195Z,18.40
2023-02-05T19:08:40.408Z,18.70
2023-02-05T19:11:09.587Z,21.03
2023-02-05T19:13:37.732Z,24.53
2023-02-05T19:16:07.335Z,22.60
2023-02-05T19:18:36.514Z,19.47
2023-02-05T19:21:05.666Z,19.63
2023-02-05T19:23:34.010Z,30.30
2023-02-05T19:26:03.958Z,27.33
2023-02-05T19:28:32.682Z,22.30
2023-02-05T19:31:03.996Z,23.00
2023-02-05T19:33:32.162Z,23.00
2023-02-05T19:36:02.231Z,18.57
2023-02-05T19:38:30.424Z,19.30
2023-02-05T19:40:58.248Z,17.17
2023-02-05T19:43:25.992Z,18.37
2023-02-05T19:45:54.135Z,16.90
2023-02-05T19:48:21.933Z,21.80
2023-02-05T19:50:49.747Z,16.90
2023-02-05T19:53:21.167Z,18.00
2023-02-05T19:55:49.123Z,17.97
2023-02-05T19:58:16.839Z,16.10
2023-02-05T20:00:44.588Z,16.60
2023-02-05T20:03:12.380Z,17.20
2023-02-05T20:05:40.117Z,17.80
2023-02-05T20:08:07.992Z,16.73
2023-02-05T20:10:37.260Z,19.87
2023-02-05T20:13:05.168Z,13.93
2023-02-05T20:15:36.558Z,14.83
2023-02-05T20:18:04.408Z,17.40
2023-02-05T20:20:33.867Z,13.20
2023-02-05T20:23:01.862Z,17.63
2023-02-05T20:25:29.665Z,12.50
2023-02-05T20:27:58.785Z,11.37
2023-02-05T20:30:43.988Z,14.60
2023-02-05T20:33:11.748Z,16.80
2023-02-05T20:35:40.173Z,12.63
2023-02-05T20:38:08.452Z,11.80
2023-02-05T20:40:36.573Z,16.87
2023-02-05T20:43:09.091Z,13.57
2023-02-05T20:45:36.910Z,13.10
2023-02-05T20:48:05.168Z,21.53
2023-02-05T20:50:33.141Z,16.67
2023-02-05T20:53:01.408Z,19.37
2023-02-05T20:55:29.599Z,14.80
2023-02-05T20:57:57.459Z,20.63
2023-02-05T21:00:27.357Z,15.67
2023-02-05T21:02:55.148Z,16.77
2023-02-05T21:05:23.545Z,15.23
2023-02-05T21:07:51.282Z,15.97
2023-02-05T21:10:19.403Z,18.17
2023-02-05T21:12:47.135Z,18.97
2023-02-05T21:15:14.945Z,14.13
2023-02-05T21:17:44.094Z,16.17
2023-02-05T21:20:12.085Z,13.33
2023-02-05T21:22:40.037Z,17.30
2023-02-05T21:25:08.686Z,17.73
2023-02-05T21:27:36.879Z,13.00
2023-02-05T21:30:05.168Z,18.97
2023-02-05T21:32:33.083Z,17.67
2023-02-05T21:35:02.397Z,19.00
2023-02-05T21:37:30.168Z,16.27
2023-02-05T21:40:08.461Z,22.87
2023-02-05T21:42:37.321Z,19.33
2023-02-05T21:45:06.054Z,18.03
2023-02-05T21:47:33.879Z,20.67
2023-02-05T21:50:03.205Z,15.30
2023-02-05T21:52:31.102Z,20.53
2023-02-05T21:54:58.925Z,21.00
2023-02-05T21:57:26.774Z,20.30
2023-02-05T21:59:55.047Z,17.40
2023-02-05T22:02:23.933Z,21.70
2023-02-05T22:04:51.872Z,19.70
2023-02-05T22:07:21.014Z,15.17
2023-02-05T22:09:48.762Z,18.97
2023-02-05T22:12:17.845Z,28.10
2023-02-05T22:14:45.686Z,16.47
2023-02-05T22:17:13.611Z,20.20
2023-02-05T22:19:41.455Z,16.23
2023-02-05T22:22:09.186Z,15.07
2023-02-05T22:24:38.402Z,21.53
2023-02-05T22:27:06.513Z,22.37
2023-02-05T22:29:34.484Z,23.57
2023-02-05T22:32:02.290Z,15.37
2023-02-05T22:34:30.125Z,17.63
2023-02-05T22:36:59.624Z,26.07
2023-02-05T22:39:27.472Z,17.97
2023-02-05T22:41:56.795Z,19.70
2023-02-05T22:44:24.568Z,20.37
2023-02-05T22:46:52.393Z,14.40
2023-02-05T22:49:20.135Z,22.07
2023-02-05T22:51:51.456Z,20.07
2023-02-05T22:54:19.210Z,20.57
2023-02-05T22:56:46.970Z,23.27
2023-02-05T22:59:16.160Z,18.13
2023-02-05T23:01:44.697Z,17.17
2023-02-05T23:04:12.710Z,18.90
2023-02-05T23:06:43.417Z,22.97
2023-02-05T23:09:14.019Z,25.57
2023-02-05T23:11:42.388Z,20.90
2023-02-05T23:14:11.454Z,21.10
2023-02-05T23:16:42.718Z,20.67
2023-02-05T23:19:12.810Z,23.40
2023-02-05T23:21:42.654Z,15.00
2023-02-05T23:24:10.953Z,25.50
2023-02-05T23:26:42.114Z,21.20
2023-02-05T23:29:10.900Z,21.63
2023-02-05T23:31:40.442Z,21.63
2023-02-05T23:34:08.422Z,26.47
2023-02-05T23:36:36.250Z,23.30
2023-02-05T23:39:04.266Z,26.63
2023-02-05T23:41:39.618Z,24.63
2023-02-05T23:44:11.556Z,30.03
2023-02-05T23:46:42.045Z,31.03
2023-02-05T23:49:10.847Z,27.43
2023-02-05T23:51:38.684Z,22.00
2023-02-05T23:54:07.540Z,27.53
2023-02-05T23:56:35.401Z,21.07
2023-02-05T23:59:03.229Z,20.70
